CheckWX is a tool to help pilots better visualize weather data.  It is not intended as a substitute for an official pre-flight weather briefing.

09:41:57 UTC

VOPC METAR
Pondicherry Airport
India
Current

4 hours ago

VOPC 190600Z 09006KT 6000 SCT018 SCT025 30/23 Q1014 NOSIG
Observed
Feb-19 @ 06:00 UTC
Wind
  • 090° at 6 KTS
Visibility
6,003 meters
Flight Rules
MVFR
Cloud Levels
  • Scattered at 1,800' AGL
  • Scattered at 2,500' AGL
Temperature
30°C / 86°F
Dewpoint
23°C / 73°F
Humidity
66%
Altimeter
29.94" Hg
Pressure
1013.92 hPa
Previous

4 hours ago

VOPC 190530Z 10005KT 6000 SCT018 SCT025 30/23 Q1015 NOSIG
Observed
Feb-19 @ 05:30 UTC
Wind
  • 100° at 5 KTS
Visibility
6,003 meters
Flight Rules
MVFR
Cloud Levels
  • Scattered at 1,800' AGL
  • Scattered at 2,500' AGL
Temperature
30°C / 86°F
Dewpoint
23°C / 73°F
Humidity
66%
Altimeter
29.97" Hg
Pressure
1014.92 hPa
Previous

5 hours ago

VOPC 190500Z 11004KT 6000 SCT018 30/23 Q1015 NOSIG
Observed
Feb-19 @ 05:00 UTC
Wind
  • 110° at 4 KTS
Visibility
6,003 meters
Flight Rules
MVFR
Cloud Levels
  • Scattered at 1,800' AGL
Temperature
30°C / 86°F
Dewpoint
23°C / 73°F
Humidity
66%
Altimeter
29.97" Hg
Pressure
1014.92 hPa